Time;durP1;ratioP1;P1;durP2;ratioP2;P2;SDS_P1;SDS_P2;PMS_P1;PMS_P2;Temp;Humidity;BMP_temperature;BMP_pressure;BME280_temperature;BME280_humidity;BME280_pressure;Samples;Min_cycle;Max_cycle;Signal;HPM_P1;HPM_P2
2022/05/23 10:06:42;;;;;;;4.97;3.13;;;24.20;50.40;;;;;;5075406;28;20135;-68
2022/05/23 10:09:21;;;;;;;6.68;3.75;;;24.10;50.60;;;;;;5087232;28;20028;-68
2022/05/23 10:11:54;;;;;;;4.43;2.83;;;24.00;50.30;;;;;;5087365;28;20036;-69
2022/05/23 10:14:22;;;;;;;5.13;2.90;;;24.00;50.60;;;;;;5079136;28;20040;-68
2022/05/23 10:16:55;;;;;;;6.03;3.35;;;23.90;50.60;;;;;;5083153;28;20016;-67
2022/05/23 10:19:31;;;;;;;4.20;2.97;;;23.90;51.00;;;;;;5090797;28;20043;-67
2022/05/23 10:22:09;;;;;;;3.22;2.30;;;23.70;51.30;;;;;;5081396;28;20020;-68
2022/05/23 10:24:36;;;;;;;4.85;2.60;;;23.70;51.50;;;;;;5083481;28;20103;-68
2022/05/23 10:27:08;;;;;;;5.60;3.10;;;23.80;51.60;;;;;;5080626;28;20559;-67
2022/05/23 10:29:58;;;;;;;6.90;4.70;;;23.60;51.60;;;;;;5084515;28;20120;-68
2022/05/23 10:32:35;;;;;;;6.18;3.33;;;23.50;52.00;;;;;;5073980;28;20036;-68
2022/05/23 10:35:28;;;;;;;4.00;2.60;;;23.50;52.30;;;;;;5094605;28;20172;-68
2022/05/23 10:42:07;;;;;;;7.70;3.17;;;23.60;52.10;;;;;;5096497;28;20024;-67
2022/05/23 10:43:27;;;;;;;6.70;3.10;;;23.50;52.30;;;;;;5089264;28;20066;-67
2022/05/23 10:45:59;;;;;;;5.88;3.35;;;23.70;52.10;;;;;;5077954;28;20036;-69
2022/05/23 10:48:45;;;;;;;5.32;3.28;;;23.70;51.90;;;;;;5089595;28;20103;-67
2022/05/23 10:51:14;;;;;;;4.80;2.80;;;23.70;52.20;;;;;;5096700;28;20028;-68
2022/05/23 10:53:49;;;;;;;5.30;3.10;;;23.90;51.90;;;;;;5085958;28;20031;-68
2022/05/23 10:56:44;;;;;;;4.80;3.10;;;23.90;51.80;;;;;;5080949;28;20035;-69
2022/05/23 10:59:23;;;;;;;7.80;3.22;;;24.00;51.80;;;;;;5079481;28;20059;-68
2022/05/23 11:01:56;;;;;;;6.30;3.50;;;23.90;51.70;;;;;;5098102;28;20027;-68
2022/05/23 11:04:33;;;;;;;6.68;3.08;;;24.00;51.50;;;;;;5090398;28;20025;-68
2022/05/23 11:06:59;;;;;;;5.28;2.80;;;23.90;51.60;;;;;;5076585;28;20107;-68
2022/05/23 11:09:46;;;;;;;6.68;2.97;;;23.90;51.70;;;;;;5068164;28;20115;-69
2022/05/23 11:12:32;;;;;;;5.90;3.30;;;23.80;52.00;;;;;;5075922;28;20665;-69
2022/05/23 11:15:03;;;;;;;6.32;3.35;;;23.80;52.10;;;;;;5080181;28;20020;-68
2022/05/23 11:17:35;;;;;;;4.68;2.70;;;23.80;52.00;;;;;;5081761;28;20035;-69
2022/05/23 11:20:06;;;;;;;;;;;23.90;51.90;;;;;;5087416;28;20101;-68
2022/05/23 11:22:44;;;;;;;5.17;2.83;;;24.00;52.00;;;;;;5099113;28;20389;-68
2022/05/23 11:25:16;;;;;;;4.32;2.70;;;24.20;52.20;;;;;;5089686;28;20792;-67
2022/05/23 11:33:50;;;;;;;5.32;3.17;;;24.50;51.90;;;;;;5086386;28;20086;-67
2022/05/23 11:36:34;;;;;;;4.63;3.17;;;24.70;51.70;;;;;;5089056;28;20015;-67
2022/05/23 11:39:00;;;;;;;6.68;3.85;;;24.90;51.40;;;;;;5093056;28;20416;-68
2022/05/23 11:41:41;;;;;;;6.18;4.18;;;25.00;51.20;;;;;;5079408;28;20024;-68
2022/05/23 11:44:49;;;;;;;4.85;3.22;;;24.90;50.80;;;;;;5073941;28;20501;-67
2022/05/23 11:47:27;;;;;;;5.47;3.45;;;24.90;51.20;;;;;;5082964;28;20051;-67
2022/05/23 11:49:58;;;;;;;7.22;3.90;;;25.10;50.70;;;;;;5086058;28;20115;-67
2022/05/23 11:52:41;;;;;;;6.38;3.67;;;25.10;50.70;;;;;;5085196;28;20028;-67
2022/05/23 11:55:10;;;;;;;5.57;3.13;;;25.20;50.40;;;;;;5085524;28;20020;-69
2022/05/23 11:57:40;;;;;;;4.45;2.65;;;25.50;49.30;;;;;;5091541;28;20028;-69
2022/05/23 12:00:25;;;;;;;2.87;2.23;;;25.50;49.00;;;;;;5071820;28;20090;-68
2022/05/23 12:03:11;;;;;;;4.13;2.20;;;25.60;48.60;;;;;;5080710;28;20036;-67
2022/05/23 12:05:37;;;;;;;4.38;2.47;;;25.70;48.10;;;;;;5083279;28;20035;-68
2022/05/23 12:08:05;;;;;;;4.32;2.47;;;25.70;47.00;;;;;;5094835;28;20028;-68
2022/05/23 12:10:37;;;;;;;3.38;1.85;;;25.60;47.30;;;;;;5091145;28;20119;-68
2022/05/23 12:13:17;;;;;;;4.95;2.30;;;25.70;47.30;;;;;;5090106;28;20024;-68
2022/05/23 12:15:43;;;;;;;4.45;2.22;;;25.70;47.10;;;;;;5091327;28;20390;-68
2022/05/23 12:18:23;;;;;;;5.05;1.55;;;25.90;47.30;;;;;;5089220;28;20028;-67
2022/05/23 12:20:58;;;;;;;3.10;2.00;;;26.10;47.20;;;;;;5076460;28;20031;-68
2022/05/23 12:23:39;;;;;;;3.05;2.25;;;26.30;47.20;;;;;;5094596;28;20509;-68
2022/05/23 12:26:23;;;;;;;6.25;2.47;;;26.40;46.90;;;;;;5067089;28;20051;-69
2022/05/23 12:28:56;;;;;;;6.22;2.42;;;26.50;46.10;;;;;;5080470;28;20016;-68
2022/05/23 12:31:29;;;;;;;3.78;2.35;;;26.40;46.40;;;;;;5090729;28;20028;-67
2022/05/23 12:34:03;;;;;;;3.63;1.80;;;26.20;46.00;;;;;;5093140;28;20122;-67
2022/05/23 12:36:33;;;;;;;4.45;2.30;;;26.10;46.60;;;;;;5090932;28;20024;-67
2022/05/23 12:39:02;;;;;;;5.57;2.30;;;26.10;46.60;;;;;;5070117;28;20386;-67
2022/05/23 12:41:53;;;;;;;6.80;2.55;;;26.00;46.40;;;;;;5094624;28;20058;-68
2022/05/23 12:45:01;;;;;;;4.45;1.70;;;25.90;46.80;;;;;;5061822;28;20117;-68
2022/05/23 12:47:39;;;;;;;2.80;1.63;;;25.80;47.20;;;;;;5088369;28;20074;-68
2022/05/23 12:50:11;;;;;;;3.95;1.92;;;26.00;47.40;;;;;;5096596;28;20027;-67
2022/05/23 12:53:04;;;;;;;5.00;2.10;;;26.10;47.40;;;;;;5109572;28;20470;-67
2022/05/23 12:56:02;;;;;;;5.70;2.05;;;26.10;47.20;;;;;;5077955;28;20105;-68
2022/05/23 12:58:42;;;;;;;3.85;1.80;;;26.10;46.80;;;;;;5085435;28;20477;-68
2022/05/23 13:01:11;;;;;;;4.38;1.80;;;26.10;46.80;;;;;;5077252;28;20043;-67
2022/05/23 13:03:53;;;;;;;4.47;2.03;;;26.10;47.00;;;;;;5094232;28;20032;-68
2022/05/23 13:06:31;;;;;;;3.17;1.90;;;26.10;47.00;;;;;;5085493;28;20031;-68
2022/05/23 13:09:01;;;;;;;5.70;2.30;;;25.90;47.10;;;;;;5101684;28;20446;-69
2022/05/23 13:11:37;;;;;;;2.92;1.92;;;25.80;47.30;;;;;;5100367;28;20035;-67
2022/05/23 13:14:03;;;;;;;3.75;2.00;;;25.70;47.60;;;;;;5076707;28;20016;-68
2022/05/23 13:16:31;;;;;;;3.35;1.90;;;25.60;47.90;;;;;;5101016;28;20032;-68
2022/05/23 13:22:05;;;;;;;5.47;2.60;;;25.50;47.80;;;;;;5094451;28;20409;-67
2022/05/23 13:24:49;;;;;;;4.93;2.00;;;25.30;47.90;;;;;;5093215;28;20028;-68
2022/05/23 13:27:21;;;;;;;4.18;2.28;;;25.30;48.10;;;;;;5089686;28;20553;-67
2022/05/23 13:29:59;;;;;;;5.30;2.33;;;25.10;48.50;;;;;;5106815;28;20432;-68
2022/05/23 13:32:26;;;;;;;4.38;2.35;;;25.00;48.90;;;;;;5090855;28;20020;-68
2022/05/23 13:35:01;;;;;;;3.30;1.95;;;25.00;49.20;;;;;;5098560;28;20394;-67
2022/05/23 13:37:32;;;;;;;4.85;1.88;;;24.90;49.50;;;;;;5086124;28;20051;-68
2022/05/23 13:40:07;;;;;;;5.32;2.42;;;25.00;49.80;;;;;;5098237;28;20058;-68
2022/05/23 13:42:33;;;;;;;3.50;2.05;;;25.00;49.80;;;;;;5056770;28;20502;-67
2022/05/23 13:45:13;;;;;;;3.58;1.92;;;25.00;49.80;;;;;;5097820;28;20038;-69
2022/05/23 13:47:44;;;;;;;3.03;1.75;;;25.00;49.70;;;;;;5098960;28;20489;-67
2022/05/23 13:50:15;;;;;;;3.78;1.92;;;24.90;49.90;;;;;;5086580;28;20020;-68
2022/05/23 13:52:55;;;;;;;3.33;1.52;;;25.00;50.00;;;;;;5081558;28;20036;-67
2022/05/23 13:55:31;;;;;;;4.22;1.75;;;25.00;50.00;;;;;;5082236;28;20020;-67
2022/05/23 13:58:04;;;;;;;4.95;1.70;;;24.90;50.00;;;;;;5074116;28;20050;-69
2022/05/23 14:00:36;;;;;;;2.83;1.30;;;24.80;50.10;;;;;;5086029;28;20029;-68
2022/05/23 14:03:25;;;;;;;2.55;1.50;;;24.80;50.20;;;;;;5081590;28;20044;-68
2022/05/23 14:05:54;;;;;;;3.40;1.40;;;24.80;50.20;;;;;;5083204;28;20532;-68
2022/05/23 14:08:33;;;;;;;2.83;1.60;;;24.80;50.30;;;;;;5071739;28;20032;-68
2022/05/23 14:11:03;;;;;;;3.70;1.60;;;24.80;50.40;;;;;;5070280;28;20033;-67
2022/05/23 14:13:31;;;;;;;4.28;1.38;;;24.80;51.00;;;;;;5065886;28;20021;-68
2022/05/23 14:15:58;;;;;;;3.08;1.60;;;24.80;51.50;;;;;;5072426;28;20108;-68
2022/05/23 14:18:29;;;;;;;2.08;1.65;;;24.70;52.60;;;;;;5073063;28;20469;-68
2022/05/23 14:20:55;;;;;;;5.57;2.17;;;24.70;53.40;;;;;;5085567;28;20024;-67
2022/05/23 14:23:25;;;;;;;1.83;1.38;;;24.60;53.90;;;;;;5082894;28;20031;-68
2022/05/23 14:25:56;;;;;;;3.42;1.80;;;24.60;53.80;;;;;;5096697;28;20020;-68
2022/05/23 14:28:28;;;;;;;3.63;1.70;;;24.50;54.50;;;;;;5067458;28;20648;-68
2022/05/23 14:31:02;;;;;;;3.13;1.83;;;24.50;54.80;;;;;;5086579;28;20038;-69
2022/05/23 14:33:30;;;;;;;3.63;1.40;;;24.50;54.90;;;;;;5084220;28;20031;-67
2022/05/23 14:36:04;;;;;;;3.72;1.42;;;24.60;54.80;;;;;;5085256;28;20112;-67
2022/05/23 14:38:43;;;;;;;2.05;1.55;;;24.70;54.80;;;;;;5082505;28;20478;-67
2022/05/23 14:41:13;;;;;;;4.05;1.90;;;24.80;55.00;;;;;;5085691;28;20420;-71
2022/05/23 14:43:39;;;;;;;3.63;1.63;;;24.80;55.40;;;;;;5086977;28;20367;-68
2022/05/23 14:46:26;;;;;;;3.72;1.60;;;24.90;55.40;;;;;;5086347;28;20034;-69
2022/05/23 14:49:05;;;;;;;3.78;1.55;;;24.90;55.10;;;;;;5082384;28;20458;-68
2022/05/23 14:51:34;;;;;;;2.17;1.40;;;25.00;55.30;;;;;;5090842;28;20020;-68
2022/05/23 14:56:54;;;;;;;3.83;1.60;;;25.10;55.20;;;;;;5089031;28;20087;-69
2022/05/23 15:02:25;;;;;;;3.15;1.63;;;24.90;55.40;;;;;;5087647;28;20529;-69
2022/05/23 15:04:51;;;;;;;2.97;1.88;;;24.80;55.70;;;;;;5085022;28;20029;-68
2022/05/23 15:07:17;;;;;;;4.13;2.05;;;24.80;55.90;;;;;;5084851;28;20020;-67
2022/05/23 15:09:44;;;;;;;5.38;2.00;;;24.70;56.40;;;;;;5085757;28;20035;-67
2022/05/23 15:12:21;;;;;;;3.85;2.00;;;24.60;56.70;;;;;;5083821;28;20032;-68
2022/05/23 15:14:48;;;;;;;2.13;1.70;;;24.50;56.90;;;;;;5084022;28;20099;-68
2022/05/23 15:17:16;;;;;;;2.53;1.63;;;24.40;57.10;;;;;;5084433;28;20040;-67
2022/05/23 15:19:42;;;;;;;2.22;1.75;;;24.30;57.40;;;;;;5083813;28;20055;-68
2022/05/23 15:22:22;;;;;;;4.90;2.10;;;24.30;57.60;;;;;;5071027;28;20056;-71
2022/05/23 15:24:48;;;;;;;4.15;2.50;;;24.20;57.70;;;;;;5091415;28;20031;-68
2022/05/23 15:27:21;;;;;;;3.72;1.80;;;24.10;57.60;;;;;;5092318;28;20103;-68
2022/05/23 15:29:50;;;;;;;3.75;1.92;;;24.10;57.80;;;;;;5093683;28;20035;-68
2022/05/23 15:32:15;;;;;;;3.95;1.80;;;24.10;57.90;;;;;;5087533;28;20031;-67
2022/05/23 15:34:41;;;;;;;3.15;1.70;;;24.00;57.80;;;;;;5092668;28;20024;-68
2022/05/23 15:37:08;;;;;;;3.42;2.25;;;24.00;58.00;;;;;;5088078;28;20069;-68
2022/05/23 15:39:35;;;;;;;4.47;2.83;;;24.00;59.00;;;;;;5089175;28;20478;-67
2022/05/23 15:42:02;;;;;;;5.22;2.80;;;23.80;61.30;;;;;;5088093;28;20016;-68
2022/05/23 15:44:37;;;;;;;3.97;2.70;;;23.50;62.40;;;;;;5066806;28;20028;-68
2022/05/23 15:47:07;;;;;;;7.20;3.00;;;23.40;63.40;;;;;;5093418;28;20023;-69
2022/05/23 15:49:32;;;;;;;4.13;2.38;;;23.30;64.00;;;;;;5089200;28;20556;-67
2022/05/23 15:52:01;;;;;;;4.60;2.78;;;23.30;64.00;;;;;;5094359;28;20012;-68
2022/05/23 15:54:31;;;;;;;4.70;2.50;;;23.30;64.40;;;;;;5074906;28;20020;-68
2022/05/23 15:56:58;;;;;;;7.43;2.92;;;23.30;64.80;;;;;;5087977;28;20051;-68
2022/05/23 15:59:27;;;;;;;5.90;2.70;;;23.30;65.20;;;;;;5088987;28;20034;-68
2022/05/23 16:01:53;;;;;;;3.80;2.63;;;23.30;65.10;;;;;;5095356;28;20031;-69
2022/05/23 16:04:18;;;;;;;3.85;2.38;;;23.40;64.80;;;;;;5089747;28;20020;-68
2022/05/23 16:06:44;;;;;;;3.92;2.78;;;23.40;64.80;;;;;;5085451;28;20057;-70
2022/05/23 16:09:10;;;;;;;6.75;2.47;;;23.40;64.90;;;;;;5088994;28;20490;-69
2022/05/23 16:11:49;;;;;;;3.80;3.22;;;23.40;65.00;;;;;;5071244;28;20036;-69
2022/05/23 16:14:16;;;;;;;2.92;2.30;;;23.30;65.70;;;;;;5073811;28;20055;-69
2022/05/23 16:16:47;;;;;;;5.82;3.40;;;23.20;66.10;;;;;;5073480;28;20028;-69
2022/05/23 16:19:15;;;;;;;3.55;2.40;;;23.10;66.80;;;;;;5094037;28;20034;-70
2022/05/23 16:21:41;;;;;;;6.75;3.35;;;23.10;66.50;;;;;;5087464;28;20453;-69
2022/05/23 16:24:08;;;;;;;7.97;3.72;;;23.00;67.30;;;;;;5078360;28;20103;-69
2022/05/23 16:26:34;;;;;;;5.68;3.05;;;22.90;67.80;;;;;;5080152;28;20020;-69
2022/05/23 16:29:00;;;;;;;6.97;3.03;;;23.00;67.50;;;;;;5083084;28;20028;-69
2022/05/23 16:31:25;;;;;;;4.93;3.50;;;23.10;67.30;;;;;;5079898;28;20039;-69
2022/05/23 16:36:35;;;;;;;7.55;3.78;;;23.00;68.00;;;;;;5082561;28;20070;-69
2022/05/23 16:39:01;;;;;;;3.83;3.15;;;23.00;68.40;;;;;;5093399;28;20016;-69
2022/05/23 16:41:27;;;;;;;5.72;3.80;;;23.00;68.30;;;;;;5089805;28;20020;-68
2022/05/23 16:43:53;;;;;;;4.68;3.50;;;23.10;68.50;;;;;;5090434;28;20032;-69
2022/05/23 16:46:19;;;;;;;5.82;3.72;;;23.10;68.80;;;;;;5090024;28;20432;-69
2022/05/23 16:48:45;;;;;;;5.25;3.40;;;23.00;69.00;;;;;;5088871;28;20020;-69
2022/05/23 16:51:11;;;;;;;7.88;4.00;;;23.10;69.10;;;;;;5088925;28;20027;-69
2022/05/23 16:53:37;;;;;;;4.35;3.28;;;23.00;69.20;;;;;;5086394;28;20016;-69
2022/05/23 16:56:03;;;;;;;6.32;4.05;;;23.00;69.30;;;;;;5089932;28;20022;-69
2022/05/23 16:58:29;;;;;;;6.78;3.72;;;22.90;69.40;;;;;;5089444;28;20020;-70
2022/05/23 17:00:55;;;;;;;7.60;5.57;;;22.90;69.20;;;;;;5091294;28;20051;-70
2022/05/23 17:03:21;;;;;;;6.90;5.50;;;22.70;69.40;;;;;;5090384;28;20032;-70
2022/05/23 17:05:46;;;;;;;6.75;4.65;;;22.60;69.60;;;;;;5089493;28;20016;-69
2022/05/23 17:08:12;;;;;;;5.00;3.60;;;22.60;69.60;;;;;;5087765;28;20028;-69
2022/05/23 17:10:38;;;;;;;4.25;3.65;;;22.60;69.40;;;;;;5091170;28;20086;-69
2022/05/23 17:13:05;;;;;;;6.18;3.85;;;22.60;69.20;;;;;;5086174;28;20055;-69
2022/05/23 17:15:31;;;;;;;5.75;4.07;;;22.50;69.20;;;;;;5094619;28;20122;-69
2022/05/23 17:17:58;;;;;;;5.93;4.43;;;22.40;69.30;;;;;;5085519;28;20103;-69
2022/05/23 17:20:25;;;;;;;7.88;6.25;;;22.30;69.60;;;;;;5090416;28;20021;-70
2022/05/23 17:22:50;;;;;;;10.45;6.90;;;22.20;70.00;;;;;;5083354;28;20024;-69
2022/05/23 17:25:17;;;;;;;7.88;5.78;;;22.00;70.30;;;;;;5094715;28;20031;-69
2022/05/23 17:27:42;;;;;;;8.98;7.10;;;21.90;70.50;;;;;;5085712;28;20073;-69
2022/05/23 17:30:08;;;;;;;9.77;6.63;;;21.80;70.80;;;;;;5100484;28;20024;-69
2022/05/23 17:32:37;;;;;;;6.72;5.95;;;21.60;70.80;;;;;;5093825;28;20024;-69
2022/05/23 17:35:06;;;;;;;8.02;5.85;;;21.60;71.00;;;;;;5093926;28;20027;-69
2022/05/23 17:37:31;;;;;;;5.72;4.90;;;21.50;71.20;;;;;;5101545;28;20028;-69
2022/05/23 17:39:57;;;;;;;7.13;5.50;;;21.30;71.30;;;;;;5100023;28;20472;-69
2022/05/23 17:42:22;;;;;;;6.40;5.00;;;21.30;71.60;;;;;;5076844;28;20036;-70
2022/05/23 17:44:48;;;;;;;4.82;4.30;;;21.10;71.70;;;;;;5102959;28;20500;-71
2022/05/23 17:47:14;;;;;;;5.30;4.57;;;21.00;72.00;;;;;;5081971;28;20012;-68
2022/05/23 17:49:41;;;;;;;5.35;4.60;;;20.90;72.30;;;;;;5094101;28;20052;-68
2022/05/23 17:52:07;;;;;;;5.63;4.30;;;20.80;72.70;;;;;;5089015;28;20386;-68
2022/05/23 17:54:32;;;;;;;3.67;3.30;;;20.60;73.40;;;;;;5086950;28;20028;-69
2022/05/23 17:56:59;;;;;;;2.65;2.45;;;20.40;73.70;;;;;;5091201;28;20016;-68
2022/05/23 17:59:25;;;;;;;2.63;2.42;;;20.40;73.90;;;;;;5088400;28;20016;-68
2022/05/23 18:01:51;;;;;;;2.55;2.30;;;20.30;73.80;;;;;;5090793;28;21711;-68
2022/05/23 18:04:18;;;;;;;2.35;2.13;;;20.30;73.90;;;;;;5088619;28;20028;-69
2022/05/23 18:06:45;;;;;;;2.45;2.20;;;20.20;74.10;;;;;;5088421;28;20024;-69
2022/05/23 18:09:11;;;;;;;3.40;2.95;;;20.10;74.30;;;;;;5089800;28;20043;-68
2022/05/23 18:11:37;;;;;;;4.25;3.53;;;20.10;74.70;;;;;;5082288;28;20028;-68
2022/05/23 18:19:31;;;;;;;4.90;4.10;;;19.70;75.90;;;;;;5087236;28;20063;-69
2022/05/23 18:21:57;;;;;;;6.05;5.25;;;19.60;76.20;;;;;;5078186;28;20660;-69
2022/05/23 18:24:24;;;;;;;6.32;4.32;;;19.50;76.60;;;;;;5094345;28;20085;-68
2022/05/23 18:26:50;;;;;;;6.38;4.82;;;19.40;76.60;;;;;;5073636;28;20683;-68
2022/05/23 18:29:16;;;;;;;4.63;4.22;;;19.30;77.10;;;;;;5089357;28;20032;-68
2022/05/23 18:31:42;;;;;;;6.43;5.78;;;19.10;77.00;;;;;;5071814;28;20031;-68
2022/05/23 18:34:08;;;;;;;8.55;7.63;;;19.00;77.00;;;;;;5079912;28;20027;-68
2022/05/23 18:36:34;;;;;;;9.65;7.85;;;18.80;76.90;;;;;;5084219;28;20018;-68
2022/05/23 18:39:00;;;;;;;6.95;6.25;;;18.50;76.90;;;;;;5095941;28;20026;-68
2022/05/23 18:41:27;;;;;;;8.70;7.32;;;18.20;77.10;;;;;;5092673;28;20024;-68
2022/05/23 18:43:54;;;;;;;9.32;8.27;;;18.10;77.30;;;;;;5092652;28;20542;-68
2022/05/23 18:46:19;;;;;;;6.70;5.85;;;18.00;77.40;;;;;;5099589;28;20024;-68
2022/05/23 18:51:29;;;;;;;7.45;6.60;;;17.70;77.80;;;;;;5094911;28;20042;-68
2022/05/23 18:53:55;;;;;;;7.70;6.50;;;17.50;77.90;;;;;;5092260;28;20016;-68
2022/05/23 18:56:21;;;;;;;8.55;6.72;;;17.40;78.20;;;;;;5079730;28;20050;-68
2022/05/23 18:58:47;;;;;;;6.63;5.20;;;17.20;78.50;;;;;;5094368;28;20490;-68
2022/05/23 19:01:13;;;;;;;6.88;5.07;;;17.10;78.70;;;;;;5087848;28;20020;-68
2022/05/23 19:03:42;;;;;;;6.28;5.05;;;17.00;78.80;;;;;;5094114;28;20024;-68
2022/05/23 19:06:08;;;;;;;6.00;5.00;;;16.90;78.90;;;;;;5067797;28;20032;-68
2022/05/23 19:08:34;;;;;;;5.65;4.75;;;16.90;78.90;;;;;;5101904;28;20122;-69
2022/05/23 19:11:00;;;;;;;6.03;4.95;;;16.90;78.90;;;;;;5090719;28;20028;-69
2022/05/23 19:13:26;;;;;;;3.47;3.17;;;16.80;78.90;;;;;;5089355;28;20613;-69
2022/05/23 19:15:51;;;;;;;3.97;3.15;;;16.80;78.90;;;;;;5085323;28;20036;-68
2022/05/23 19:18:17;;;;;;;4.45;3.45;;;16.80;79.00;;;;;;5075318;28;20020;-68
2022/05/23 19:20:44;;;;;;;3.70;3.20;;;16.80;79.10;;;;;;5096782;28;20459;-68
2022/05/23 19:23:10;;;;;;;3.75;3.35;;;16.70;79.10;;;;;;5090997;28;20401;-68
2022/05/23 19:25:36;;;;;;;4.75;3.92;;;16.70;79.10;;;;;;5089553;28;20028;-68
2022/05/23 19:28:03;;;;;;;3.40;2.90;;;16.70;79.10;;;;;;5076822;28;20454;-68
2022/05/23 19:30:29;;;;;;;3.30;3.00;;;16.70;79.00;;;;;;5095970;28;20036;-68
2022/05/23 19:32:56;;;;;;;3.80;3.20;;;16.70;78.90;;;;;;5090366;28;20028;-68
2022/05/23 19:35:21;;;;;;;4.07;3.30;;;16.70;78.90;;;;;;5067450;28;20710;-68
2022/05/23 19:37:47;;;;;;;3.05;2.75;;;16.60;78.80;;;;;;5090823;28;20104;-68
2022/05/23 19:40:13;;;;;;;3.13;2.60;;;16.60;78.90;;;;;;5095927;28;20402;-68
2022/05/23 19:42:41;;;;;;;3.60;2.50;;;16.50;79.00;;;;;;5089030;28;20028;-68
2022/05/23 19:45:08;;;;;;;3.72;2.60;;;16.40;79.10;;;;;;5086063;28;20482;-68
2022/05/23 19:47:34;;;;;;;3.60;2.33;;;16.40;79.20;;;;;;5090450;28;21414;-69
2022/05/23 19:49:59;;;;;;;2.08;1.85;;;16.40;79.10;;;;;;5087707;28;20078;-68
2022/05/23 19:52:25;;;;;;;2.85;2.05;;;16.50;79.10;;;;;;5089886;28;20024;-67
2022/05/23 19:54:50;;;;;;;3.95;2.10;;;16.40;78.80;;;;;;5064283;28;20470;-67
2022/05/23 19:57:16;;;;;;;2.03;1.60;;;16.30;79.00;;;;;;5091866;28;20039;-67
2022/05/23 19:59:45;;;;;;;3.25;1.77;;;16.40;79.10;;;;;;5089177;28;20091;-67
2022/05/23 20:07:49;;;;;;;2.90;1.90;;;16.30;79.10;;;;;;5086538;28;20110;-67
2022/05/23 20:10:16;;;;;;;2.53;1.80;;;16.30;79.30;;;;;;5090901;28;20028;-68
2022/05/23 20:12:41;;;;;;;2.95;1.70;;;16.30;79.30;;;;;;5097236;28;20015;-68
2022/05/23 20:15:23;;;;;;;3.63;1.85;;;16.30;79.00;;;;;;5092882;28;20021;-68
2022/05/23 20:17:53;;;;;;;3.00;1.75;;;16.30;79.00;;;;;;5089468;28;20490;-68
2022/05/23 20:20:21;;;;;;;3.30;2.10;;;16.30;78.90;;;;;;5088988;28;20040;-68
2022/05/23 20:22:47;;;;;;;2.97;2.15;;;16.30;78.80;;;;;;5075320;28;20020;-68
2022/05/23 20:25:14;;;;;;;3.08;1.98;;;16.40;78.70;;;;;;5088344;28;20016;-68
2022/05/23 20:27:40;;;;;;;3.88;2.33;;;16.40;78.60;;;;;;5090908;28;20774;-68
2022/05/23 20:30:08;;;;;;;2.90;2.10;;;16.30;78.60;;;;;;5095930;28;20036;-68
2022/05/23 20:32:34;;;;;;;3.45;1.95;;;16.40;78.70;;;;;;5097253;28;20024;-68
2022/05/23 20:35:01;;;;;;;5.32;2.70;;;16.40;78.60;;;;;;5087591;28;20012;-68
2022/05/23 20:37:27;;;;;;;4.18;2.72;;;16.40;78.60;;;;;;5082153;28;20103;-67
2022/05/23 20:39:53;;;;;;;4.40;2.80;;;16.40;78.60;;;;;;5086970;28;20123;-68
2022/05/23 20:42:19;;;;;;;3.92;3.00;;;16.40;78.70;;;;;;5086722;28;20030;-68
2022/05/23 20:44:44;;;;;;;5.15;3.92;;;16.40;78.80;;;;;;5091420;28;20509;-67
2022/05/23 20:47:10;;;;;;;6.55;4.15;;;16.30;79.30;;;;;;5087886;28;20371;-68
2022/05/23 20:49:36;;;;;;;5.53;4.00;;;16.20;79.40;;;;;;5083105;28;20043;-68
2022/05/23 20:52:02;;;;;;;4.28;3.70;;;16.20;79.40;;;;;;5094311;28;20054;-68
2022/05/23 20:54:27;;;;;;;4.68;3.53;;;16.20;79.50;;;;;;5089092;28;20024;-68
2022/05/23 20:56:53;;;;;;;5.07;3.92;;;16.20;79.50;;;;;;5084708;28;20394;-68
2022/05/23 20:59:18;;;;;;;5.47;4.47;;;16.20;79.60;;;;;;5097115;28;20020;-67
2022/05/23 21:01:54;;;;;;;6.50;4.32;;;16.10;79.70;;;;;;5091370;28;20478;-68
2022/05/23 21:04:21;;;;;;;6.70;4.30;;;16.10;79.70;;;;;;5100832;28;20122;-67
2022/05/23 21:06:46;;;;;;;5.15;3.75;;;16.20;79.70;;;;;;5069881;28;20397;-67
2022/05/23 21:09:12;;;;;;;7.05;4.65;;;16.10;79.50;;;;;;5090681;28;20032;-68
2022/05/23 21:11:37;;;;;;;6.38;4.28;;;16.10;79.60;;;;;;5084445;28;20028;-67
2022/05/23 21:14:25;;;;;;;5.07;3.40;;;16.00;79.60;;;;;;5084156;28;20032;-67
2022/05/23 21:16:48;;;;;;;5.40;4.28;;;16.00;79.80;;;;;;5083824;28;20075;-69
2022/05/23 21:19:14;;;;;;;6.80;4.78;;;16.00;79.90;;;;;;5086606;28;20047;-68
2022/05/23 21:21:39;;;;;;;5.10;3.67;;;16.00;79.80;;;;;;5083573;28;20616;-68
2022/05/23 21:24:06;;;;;;;5.32;4.07;;;16.00;79.80;;;;;;5070787;28;20032;-68
2022/05/23 21:26:32;;;;;;;4.53;3.83;;;16.00;79.80;;;;;;5088248;28;20060;-68
2022/05/23 21:28:57;;;;;;;8.82;4.40;;;16.10;79.70;;;;;;5089089;28;20047;-68
2022/05/23 21:31:23;;;;;;;4.93;3.58;;;16.00;79.60;;;;;;5084942;28;20081;-68
2022/05/23 21:33:48;;;;;;;5.88;4.15;;;16.00;79.50;;;;;;5091069;28;20097;-68
2022/05/23 21:36:14;;;;;;;4.47;3.20;;;16.00;79.60;;;;;;5088254;28;20377;-68
2022/05/23 21:38:40;;;;;;;6.38;4.38;;;16.00;79.60;;;;;;5090294;28;20486;-68
2022/05/23 21:46:39;;;;;;;5.43;4.32;;;15.90;80.10;;;;;;5097112;28;20093;-68
2022/05/23 21:49:05;;;;;;;6.20;4.22;;;15.90;80.10;;;;;;5090686;28;20501;-68
2022/05/23 21:51:31;;;;;;;5.50;4.38;;;15.90;80.00;;;;;;5096948;28;20362;-68
2022/05/23 21:53:57;;;;;;;6.40;5.10;;;15.90;80.10;;;;;;5063748;28;20028;-68
2022/05/23 21:56:23;;;;;;;4.57;4.07;;;15.80;80.20;;;;;;5072350;28;20016;-68
2022/05/23 21:58:50;;;;;;;5.38;3.80;;;15.90;80.10;;;;;;5094716;28;20023;-68
2022/05/23 22:04:01;;;;;;;7.30;5.80;;;15.90;80.10;;;;;;5088769;28;20493;-68
2022/05/23 22:06:26;;;;;;;7.90;6.38;;;15.80;80.10;;;;;;5088590;28;20035;-68
2022/05/23 22:08:54;;;;;;;8.93;7.25;;;15.80;80.20;;;;;;5086440;28;20027;-68
2022/05/23 22:11:21;;;;;;;8.90;7.53;;;15.80;80.20;;;;;;5094623;28;20024;-68
2022/05/23 22:13:47;;;;;;;9.50;6.75;;;15.80;80.20;;;;;;5075071;28;20026;-67
2022/05/23 22:16:14;;;;;;;8.02;6.63;;;15.80;80.10;;;;;;5097256;28;20020;-67
2022/05/23 22:18:40;;;;;;;9.20;7.25;;;15.90;80.00;;;;;;5095965;28;20027;-67
2022/05/23 22:21:05;;;;;;;7.43;6.35;;;15.90;80.00;;;;;;5098026;28;20024;-67
2022/05/23 22:23:31;;;;;;;7.35;6.65;;;15.90;80.00;;;;;;5074548;28;20034;-67
2022/05/23 22:25:57;;;;;;;9.18;8.18;;;15.80;80.00;;;;;;5098584;28;20070;-67
2022/05/23 22:28:22;;;;;;;7.60;6.53;;;15.80;80.30;;;;;;5092884;28;20044;-68
2022/05/23 22:30:48;;;;;;;10.30;7.05;;;15.70;80.60;;;;;;5106378;28;20030;-65
2022/05/23 22:33:14;;;;;;;8.05;5.95;;;15.70;80.70;;;;;;5087248;28;20034;-68
2022/05/23 22:35:40;;;;;;;6.65;5.55;;;15.80;80.60;;;;;;5097763;28;20024;-69
2022/05/23 22:38:05;;;;;;;8.10;6.80;;;15.80;80.40;;;;;;5087711;28;20028;-69
2022/05/23 22:40:31;;;;;;;8.38;6.57;;;15.80;80.40;;;;;;5103139;28;20574;-66
2022/05/23 22:42:58;;;;;;;10.63;7.35;;;15.90;80.30;;;;;;5092526;28;20036;-67
2022/05/23 22:45:25;;;;;;;8.27;6.43;;;15.90;80.20;;;;;;5097378;28;20123;-67
2022/05/23 22:47:50;;;;;;;6.22;4.80;;;15.90;80.10;;;;;;5095667;28;20034;-66
2022/05/23 22:50:17;;;;;;;6.55;5.15;;;15.90;80.00;;;;;;5083777;28;20130;-68
2022/05/23 22:52:42;;;;;;;8.00;5.88;;;15.90;79.90;;;;;;5096493;28;20063;-66
2022/05/23 22:55:09;;;;;;;6.72;5.57;;;15.90;79.90;;;;;;5087965;28;20051;-65
2022/05/23 22:57:35;;;;;;;7.55;6.30;;;16.00;79.80;;;;;;5091505;28;20474;-65
2022/05/23 23:00:03;;;;;;;7.70;5.82;;;16.00;79.80;;;;;;5090359;28;20020;-66
2022/05/23 23:02:29;;;;;;;8.00;6.00;;;16.00;79.80;;;;;;5099497;28;20157;-67
2022/05/23 23:04:54;;;;;;;7.10;5.45;;;16.00;79.70;;;;;;5097245;28;20091;-68
2022/05/23 23:07:20;;;;;;;8.20;5.78;;;16.10;79.60;;;;;;5100688;28;20171;-69
2022/05/23 23:09:46;;;;;;;7.60;6.18;;;16.10;79.50;;;;;;5075350;28;20023;-69
2022/05/23 23:12:13;;;;;;;7.50;6.05;;;16.10;79.40;;;;;;5097069;28;20034;-69
2022/05/23 23:14:39;;;;;;;6.20;5.57;;;16.10;79.40;;;;;;5098398;28;20030;-68
2022/05/23 23:17:10;;;;;;;8.63;6.03;;;16.10;79.30;;;;;;5088342;28;20137;-69
2022/05/23 23:19:37;;;;;;;6.85;6.07;;;16.10;79.40;;;;;;5096471;28;20083;-69
2022/05/23 23:22:03;;;;;;;8.32;7.20;;;16.20;79.40;;;;;;5072065;28;20024;-68
2022/05/23 23:24:28;;;;;;;8.27;7.03;;;16.10;79.40;;;;;;5084110;28;20482;-68
2022/05/23 23:26:54;;;;;;;7.82;6.57;;;16.20;79.60;;;;;;5105177;28;20026;-69
2022/05/23 23:29:20;;;;;;;7.53;6.50;;;16.10;79.60;;;;;;5094037;28;20085;-69
2022/05/23 23:31:45;;;;;;;10.38;7.47;;;16.10;79.60;;;;;;5098769;28;20064;-69
2022/05/23 23:39:39;;;;;;;8.57;6.78;;;16.20;79.70;;;;;;5096694;28;20089;-69
2022/05/23 23:42:05;;;;;;;8.95;7.13;;;16.20;79.70;;;;;;5097307;28;20024;-69
2022/05/23 23:44:30;;;;;;;10.02;8.82;;;16.20;79.70;;;;;;5092054;28;20024;-69
2022/05/23 23:46:56;;;;;;;9.95;8.43;;;16.20;80.00;;;;;;5100134;28;20020;-68
2022/05/23 23:49:21;;;;;;;8.00;7.20;;;16.10;80.10;;;;;;5071139;28;20579;-68
2022/05/23 23:51:47;;;;;;;8.85;6.95;;;16.20;80.90;;;;;;5085430;28;20031;-69
2022/05/23 23:54:13;;;;;;;8.20;6.70;;;16.10;80.30;;;;;;5089999;28;20024;-69